sensor_id;sensor_type;location;lat;lon;timestamp;P1;durP1;ratioP1;P2;durP2;ratioP2
55684;SDS011;41883;49.544;8.646;2022-11-15T00:00:25;4.15;;;2.70;;
55684;SDS011;41883;49.544;8.646;2022-11-15T00:02:54;4.18;;;2.92;;
55684;SDS011;41883;49.544;8.646;2022-11-15T00:05:20;3.92;;;2.60;;
55684;SDS011;41883;49.544;8.646;2022-11-15T00:07:45;6.30;;;2.80;;
55684;SDS011;41883;49.544;8.646;2022-11-15T00:10:10;3.60;;;2.50;;
55684;SDS011;41883;49.544;8.646;2022-11-15T00:12:35;4.95;;;2.90;;
55684;SDS011;41883;49.544;8.646;2022-11-15T00:15:01;3.78;;;2.78;;
55684;SDS011;41883;49.544;8.646;2022-11-15T00:17:26;4.78;;;2.63;;
55684;SDS011;41883;49.544;8.646;2022-11-15T00:19:51;5.53;;;3.08;;
55684;SDS011;41883;49.544;8.646;2022-11-15T00:22:17;4.88;;;2.80;;
55684;SDS011;41883;49.544;8.646;2022-11-15T00:24:42;4.40;;;2.75;;
55684;SDS011;41883;49.544;8.646;2022-11-15T00:27:07;3.95;;;2.70;;
55684;SDS011;41883;49.544;8.646;2022-11-15T00:29:33;3.53;;;2.40;;
55684;SDS011;41883;49.544;8.646;2022-11-15T00:31:58;3.40;;;2.35;;
55684;SDS011;41883;49.544;8.646;2022-11-15T00:34:23;3.80;;;2.37;;
55684;SDS011;41883;49.544;8.646;2022-11-15T00:36:48;4.68;;;2.88;;
55684;SDS011;41883;49.544;8.646;2022-11-15T00:39:14;3.75;;;2.50;;
55684;SDS011;41883;49.544;8.646;2022-11-15T00:41:39;4.38;;;2.88;;
55684;SDS011;41883;49.544;8.646;2022-11-15T00:44:04;5.47;;;2.97;;
55684;SDS011;41883;49.544;8.646;2022-11-15T00:46:29;3.80;;;2.30;;
55684;SDS011;41883;49.544;8.646;2022-11-15T00:48:55;2.77;;;2.07;;
55684;SDS011;41883;49.544;8.646;2022-11-15T00:51:20;3.92;;;1.88;;
55684;SDS011;41883;49.544;8.646;2022-11-15T00:53:45;2.70;;;1.70;;
55684;SDS011;41883;49.544;8.646;2022-11-15T00:56:11;3.27;;;2.10;;
55684;SDS011;41883;49.544;8.646;2022-11-15T00:58:36;4.40;;;2.60;;
55684;SDS011;41883;49.544;8.646;2022-11-15T01:01:05;3.15;;;2.30;;
55684;SDS011;41883;49.544;8.646;2022-11-15T01:03:32;5.10;;;2.80;;
55684;SDS011;41883;49.544;8.646;2022-11-15T01:05:59;4.18;;;2.58;;
55684;SDS011;41883;49.544;8.646;2022-11-15T01:08:25;6.53;;;2.95;;
55684;SDS011;41883;49.544;8.646;2022-11-15T01:10:50;4.07;;;2.90;;
55684;SDS011;41883;49.544;8.646;2022-11-15T01:13:15;5.40;;;3.08;;
55684;SDS011;41883;49.544;8.646;2022-11-15T01:15:41;4.65;;;3.10;;
55684;SDS011;41883;49.544;8.646;2022-11-15T01:18:06;4.57;;;3.08;;
55684;SDS011;41883;49.544;8.646;2022-11-15T01:20:32;4.60;;;3.10;;
55684;SDS011;41883;49.544;8.646;2022-11-15T01:22:57;5.32;;;3.10;;
55684;SDS011;41883;49.544;8.646;2022-11-15T01:25:22;4.30;;;2.60;;
55684;SDS011;41883;49.544;8.646;2022-11-15T01:27:47;3.97;;;2.53;;
55684;SDS011;41883;49.544;8.646;2022-11-15T01:30:13;4.75;;;2.42;;
55684;SDS011;41883;49.544;8.646;2022-11-15T01:32:38;4.30;;;2.75;;
55684;SDS011;41883;49.544;8.646;2022-11-15T01:35:03;6.05;;;2.90;;
55684;SDS011;41883;49.544;8.646;2022-11-15T01:37:29;4.55;;;2.60;;
55684;SDS011;41883;49.544;8.646;2022-11-15T01:39:54;3.72;;;2.55;;
55684;SDS011;41883;49.544;8.646;2022-11-15T01:42:19;4.47;;;2.60;;
55684;SDS011;41883;49.544;8.646;2022-11-15T01:44:49;4.93;;;2.95;;
55684;SDS011;41883;49.544;8.646;2022-11-15T01:49:50;5.25;;;2.38;;
55684;SDS011;41883;49.544;8.646;2022-11-15T01:52:21;5.45;;;2.97;;
55684;SDS011;41883;49.544;8.646;2022-11-15T01:54:49;4.43;;;2.78;;
55684;SDS011;41883;49.544;8.646;2022-11-15T01:57:19;4.93;;;2.67;;
55684;SDS011;41883;49.544;8.646;2022-11-15T01:59:44;4.10;;;2.50;;
55684;SDS011;41883;49.544;8.646;2022-11-15T02:02:11;3.72;;;2.25;;
55684;SDS011;41883;49.544;8.646;2022-11-15T02:04:41;3.70;;;2.50;;
55684;SDS011;41883;49.544;8.646;2022-11-15T02:09:35;2.67;;;1.90;;
55684;SDS011;41883;49.544;8.646;2022-11-15T02:12:01;3.58;;;2.00;;
55684;SDS011;41883;49.544;8.646;2022-11-15T02:14:27;3.65;;;2.20;;
55684;SDS011;41883;49.544;8.646;2022-11-15T02:22:59;3.95;;;2.20;;
55684;SDS011;41883;49.544;8.646;2022-11-15T02:25:51;2.95;;;2.13;;
55684;SDS011;41883;49.544;8.646;2022-11-15T02:31:28;3.13;;;2.38;;
55684;SDS011;41883;49.544;8.646;2022-11-15T02:34:20;4.57;;;2.50;;
55684;SDS011;41883;49.544;8.646;2022-11-15T02:37:03;3.70;;;2.53;;
55684;SDS011;41883;49.544;8.646;2022-11-15T02:39:46;3.75;;;2.40;;
55684;SDS011;41883;49.544;8.646;2022-11-15T02:42:20;3.58;;;2.33;;
55684;SDS011;41883;49.544;8.646;2022-11-15T02:45:09;3.75;;;2.70;;
55684;SDS011;41883;49.544;8.646;2022-11-15T02:50:12;4.47;;;2.53;;
55684;SDS011;41883;49.544;8.646;2022-11-15T02:52:43;4.00;;;2.35;;
55684;SDS011;41883;49.544;8.646;2022-11-15T02:55:29;5.78;;;2.20;;
55684;SDS011;41883;49.544;8.646;2022-11-15T02:58:06;3.20;;;2.38;;
55684;SDS011;41883;49.544;8.646;2022-11-15T03:01:11;3.20;;;2.30;;
55684;SDS011;41883;49.544;8.646;2022-11-15T03:03:54;3.83;;;2.58;;
55684;SDS011;41883;49.544;8.646;2022-11-15T03:12:11;4.93;;;2.92;;
55684;SDS011;41883;49.544;8.646;2022-11-15T03:14:53;3.60;;;2.60;;
55684;SDS011;41883;49.544;8.646;2022-11-15T03:17:26;5.55;;;2.28;;
55684;SDS011;41883;49.544;8.646;2022-11-15T03:19:56;4.85;;;2.70;;
55684;SDS011;41883;49.544;8.646;2022-11-15T03:22:24;3.78;;;2.58;;
55684;SDS011;41883;49.544;8.646;2022-11-15T03:24:53;4.30;;;2.78;;
55684;SDS011;41883;49.544;8.646;2022-11-15T03:27:23;4.03;;;2.53;;
55684;SDS011;41883;49.544;8.646;2022-11-15T03:29:54;2.78;;;2.17;;
55684;SDS011;41883;49.544;8.646;2022-11-15T03:34:56;3.58;;;2.45;;
55684;SDS011;41883;49.544;8.646;2022-11-15T03:37:35;2.80;;;1.88;;
55684;SDS011;41883;49.544;8.646;2022-11-15T03:40:14;3.13;;;2.00;;
55684;SDS011;41883;49.544;8.646;2022-11-15T03:42:48;2.45;;;1.90;;
55684;SDS011;41883;49.544;8.646;2022-11-15T03:48:23;2.90;;;1.60;;
55684;SDS011;41883;49.544;8.646;2022-11-15T03:50:51;2.88;;;1.85;;
55684;SDS011;41883;49.544;8.646;2022-11-15T03:53:17;3.22;;;2.15;;
55684;SDS011;41883;49.544;8.646;2022-11-15T03:55:42;2.92;;;2.08;;
55684;SDS011;41883;49.544;8.646;2022-11-15T03:58:08;3.53;;;2.45;;
55684;SDS011;41883;49.544;8.646;2022-11-15T04:00:34;3.22;;;2.30;;
55684;SDS011;41883;49.544;8.646;2022-11-15T04:02:59;3.15;;;2.22;;
55684;SDS011;41883;49.544;8.646;2022-11-15T04:05:24;5.35;;;3.15;;
55684;SDS011;41883;49.544;8.646;2022-11-15T04:07:50;3.80;;;2.58;;
55684;SDS011;41883;49.544;8.646;2022-11-15T04:10:15;3.58;;;2.20;;
55684;SDS011;41883;49.544;8.646;2022-11-15T04:12:42;4.90;;;3.00;;
55684;SDS011;41883;49.544;8.646;2022-11-15T04:15:12;4.25;;;2.70;;
55684;SDS011;41883;49.544;8.646;2022-11-15T04:17:43;4.15;;;2.50;;
55684;SDS011;41883;49.544;8.646;2022-11-15T04:20:20;4.22;;;2.80;;
55684;SDS011;41883;49.544;8.646;2022-11-15T04:23:07;3.67;;;2.33;;
55684;SDS011;41883;49.544;8.646;2022-11-15T04:25:54;3.10;;;2.40;;
55684;SDS011;41883;49.544;8.646;2022-11-15T04:28:20;3.72;;;2.25;;
55684;SDS011;41883;49.544;8.646;2022-11-15T04:30:46;4.57;;;3.05;;
55684;SDS011;41883;49.544;8.646;2022-11-15T04:33:12;3.63;;;2.58;;
55684;SDS011;41883;49.544;8.646;2022-11-15T04:35:38;7.00;;;3.15;;
55684;SDS011;41883;49.544;8.646;2022-11-15T04:38:04;4.47;;;2.90;;
55684;SDS011;41883;49.544;8.646;2022-11-15T04:40:31;3.47;;;2.40;;
55684;SDS011;41883;49.544;8.646;2022-11-15T04:42:56;3.63;;;1.90;;
55684;SDS011;41883;49.544;8.646;2022-11-15T04:45:22;3.90;;;2.00;;
55684;SDS011;41883;49.544;8.646;2022-11-15T04:47:47;2.88;;;2.20;;
55684;SDS011;41883;49.544;8.646;2022-11-15T04:50:13;3.70;;;2.40;;
55684;SDS011;41883;49.544;8.646;2022-11-15T04:52:40;3.67;;;2.45;;
55684;SDS011;41883;49.544;8.646;2022-11-15T04:55:07;3.25;;;2.20;;
55684;SDS011;41883;49.544;8.646;2022-11-15T04:57:33;2.72;;;2.10;;
55684;SDS011;41883;49.544;8.646;2022-11-15T04:59:58;3.38;;;2.20;;
55684;SDS011;41883;49.544;8.646;2022-11-15T05:02:23;3.10;;;1.90;;
55684;SDS011;41883;49.544;8.646;2022-11-15T05:05:09;4.97;;;2.55;;
55684;SDS011;41883;49.544;8.646;2022-11-15T05:07:34;3.15;;;1.98;;
55684;SDS011;41883;49.544;8.646;2022-11-15T05:09:59;4.05;;;2.60;;
55684;SDS011;41883;49.544;8.646;2022-11-15T05:12:24;3.65;;;2.20;;
55684;SDS011;41883;49.544;8.646;2022-11-15T05:14:50;4.20;;;2.63;;
55684;SDS011;41883;49.544;8.646;2022-11-15T05:17:15;4.50;;;2.90;;
55684;SDS011;41883;49.544;8.646;2022-11-15T05:19:40;6.13;;;3.40;;
55684;SDS011;41883;49.544;8.646;2022-11-15T05:22:05;4.32;;;2.80;;
55684;SDS011;41883;49.544;8.646;2022-11-15T05:24:31;3.90;;;2.78;;
55684;SDS011;41883;49.544;8.646;2022-11-15T05:26:56;4.72;;;2.55;;
55684;SDS011;41883;49.544;8.646;2022-11-15T05:29:21;5.93;;;2.70;;
55684;SDS011;41883;49.544;8.646;2022-11-15T05:31:46;4.35;;;2.60;;
55684;SDS011;41883;49.544;8.646;2022-11-15T05:34:12;4.03;;;2.50;;
55684;SDS011;41883;49.544;8.646;2022-11-15T05:36:38;4.03;;;2.65;;
55684;SDS011;41883;49.544;8.646;2022-11-15T05:39:06;3.88;;;2.47;;
55684;SDS011;41883;49.544;8.646;2022-11-15T05:44:06;4.45;;;2.78;;
55684;SDS011;41883;49.544;8.646;2022-11-15T05:46:34;4.55;;;2.90;;
55684;SDS011;41883;49.544;8.646;2022-11-15T05:49:00;4.70;;;2.88;;
55684;SDS011;41883;49.544;8.646;2022-11-15T05:51:26;4.70;;;3.25;;
55684;SDS011;41883;49.544;8.646;2022-11-15T05:53:53;4.32;;;3.05;;
55684;SDS011;41883;49.544;8.646;2022-11-15T05:56:21;4.30;;;2.95;;
55684;SDS011;41883;49.544;8.646;2022-11-15T05:58:47;4.70;;;2.80;;
55684;SDS011;41883;49.544;8.646;2022-11-15T06:01:12;6.28;;;3.47;;
55684;SDS011;41883;49.544;8.646;2022-11-15T06:03:38;5.53;;;3.50;;
55684;SDS011;41883;49.544;8.646;2022-11-15T06:06:03;5.88;;;4.00;;
55684;SDS011;41883;49.544;8.646;2022-11-15T06:08:28;6.82;;;4.07;;
55684;SDS011;41883;49.544;8.646;2022-11-15T06:10:54;7.35;;;3.97;;
55684;SDS011;41883;49.544;8.646;2022-11-15T06:13:19;4.55;;;3.15;;
55684;SDS011;41883;49.544;8.646;2022-11-15T06:15:44;5.40;;;3.40;;
55684;SDS011;41883;49.544;8.646;2022-11-15T06:18:10;5.18;;;3.30;;
55684;SDS011;41883;49.544;8.646;2022-11-15T06:20:35;4.53;;;2.70;;
55684;SDS011;41883;49.544;8.646;2022-11-15T06:23:01;4.32;;;3.20;;
55684;SDS011;41883;49.544;8.646;2022-11-15T06:25:28;4.65;;;3.10;;
55684;SDS011;41883;49.544;8.646;2022-11-15T06:27:54;4.32;;;2.55;;
55684;SDS011;41883;49.544;8.646;2022-11-15T06:30:21;4.07;;;2.35;;
55684;SDS011;41883;49.544;8.646;2022-11-15T06:32:48;5.40;;;3.28;;
55684;SDS011;41883;49.544;8.646;2022-11-15T06:35:13;3.58;;;2.50;;
55684;SDS011;41883;49.544;8.646;2022-11-15T06:37:39;3.80;;;2.50;;
55684;SDS011;41883;49.544;8.646;2022-11-15T06:40:06;4.10;;;2.67;;
55684;SDS011;41883;49.544;8.646;2022-11-15T06:42:32;4.15;;;2.78;;
55684;SDS011;41883;49.544;8.646;2022-11-15T06:44:58;4.32;;;3.20;;
55684;SDS011;41883;49.544;8.646;2022-11-15T06:47:23;5.03;;;3.30;;
55684;SDS011;41883;49.544;8.646;2022-11-15T06:49:48;7.85;;;3.22;;
55684;SDS011;41883;49.544;8.646;2022-11-15T06:52:13;4.60;;;2.75;;
55684;SDS011;41883;49.544;8.646;2022-11-15T06:54:39;6.68;;;3.40;;
55684;SDS011;41883;49.544;8.646;2022-11-15T06:57:04;5.43;;;3.70;;
55684;SDS011;41883;49.544;8.646;2022-11-15T06:59:30;6.90;;;4.53;;
55684;SDS011;41883;49.544;8.646;2022-11-15T07:01:55;8.50;;;5.10;;
55684;SDS011;41883;49.544;8.646;2022-11-15T07:04:20;6.45;;;4.70;;
55684;SDS011;41883;49.544;8.646;2022-11-15T07:06:46;6.43;;;4.28;;
55684;SDS011;41883;49.544;8.646;2022-11-15T07:09:13;5.15;;;3.90;;
55684;SDS011;41883;49.544;8.646;2022-11-15T07:11:38;6.03;;;4.60;;
55684;SDS011;41883;49.544;8.646;2022-11-15T07:14:03;5.55;;;4.18;;
55684;SDS011;41883;49.544;8.646;2022-11-15T07:16:29;6.10;;;3.92;;
55684;SDS011;41883;49.544;8.646;2022-11-15T07:18:54;5.20;;;3.70;;
55684;SDS011;41883;49.544;8.646;2022-11-15T07:21:19;5.78;;;4.13;;
55684;SDS011;41883;49.544;8.646;2022-11-15T07:23:45;6.13;;;4.15;;
55684;SDS011;41883;49.544;8.646;2022-11-15T07:26:10;7.03;;;4.53;;
55684;SDS011;41883;49.544;8.646;2022-11-15T07:28:35;5.97;;;4.47;;
55684;SDS011;41883;49.544;8.646;2022-11-15T07:31:01;6.00;;;3.72;;
55684;SDS011;41883;49.544;8.646;2022-11-15T07:33:28;5.60;;;3.38;;
55684;SDS011;41883;49.544;8.646;2022-11-15T07:35:53;4.65;;;3.42;;
55684;SDS011;41883;49.544;8.646;2022-11-15T07:38:18;4.82;;;3.20;;
55684;SDS011;41883;49.544;8.646;2022-11-15T07:40:44;4.00;;;3.00;;
55684;SDS011;41883;49.544;8.646;2022-11-15T07:43:10;4.75;;;3.60;;
55684;SDS011;41883;49.544;8.646;2022-11-15T07:45:39;5.70;;;3.65;;
55684;SDS011;41883;49.544;8.646;2022-11-15T07:48:06;4.30;;;2.83;;
55684;SDS011;41883;49.544;8.646;2022-11-15T07:50:31;4.13;;;2.80;;
55684;SDS011;41883;49.544;8.646;2022-11-15T07:52:57;3.53;;;2.25;;
55684;SDS011;41883;49.544;8.646;2022-11-15T07:55:24;3.88;;;3.00;;
55684;SDS011;41883;49.544;8.646;2022-11-15T07:57:52;4.18;;;2.95;;
55684;SDS011;41883;49.544;8.646;2022-11-15T08:00:18;4.72;;;3.22;;
55684;SDS011;41883;49.544;8.646;2022-11-15T08:02:44;6.07;;;3.40;;
55684;SDS011;41883;49.544;8.646;2022-11-15T08:05:10;5.47;;;3.58;;
55684;SDS011;41883;49.544;8.646;2022-11-15T08:07:35;6.40;;;4.32;;
55684;SDS011;41883;49.544;8.646;2022-11-15T08:10:01;6.07;;;3.78;;
55684;SDS011;41883;49.544;8.646;2022-11-15T08:12:27;6.75;;;3.90;;
55684;SDS011;41883;49.544;8.646;2022-11-15T08:14:54;6.57;;;3.70;;
55684;SDS011;41883;49.544;8.646;2022-11-15T08:17:20;5.57;;;3.50;;
55684;SDS011;41883;49.544;8.646;2022-11-15T08:19:46;4.63;;;2.88;;
55684;SDS011;41883;49.544;8.646;2022-11-15T08:22:11;4.40;;;3.03;;
55684;SDS011;41883;49.544;8.646;2022-11-15T08:24:36;4.15;;;2.72;;
55684;SDS011;41883;49.544;8.646;2022-11-15T08:27:02;4.57;;;2.70;;
55684;SDS011;41883;49.544;8.646;2022-11-15T08:29:27;5.70;;;2.90;;
55684;SDS011;41883;49.544;8.646;2022-11-15T08:31:54;4.47;;;2.50;;
55684;SDS011;41883;49.544;8.646;2022-11-15T08:34:20;4.78;;;2.72;;
55684;SDS011;41883;49.544;8.646;2022-11-15T08:36:46;4.18;;;2.50;;
55684;SDS011;41883;49.544;8.646;2022-11-15T08:39:11;3.90;;;2.28;;
55684;SDS011;41883;49.544;8.646;2022-11-15T08:41:37;4.60;;;2.30;;
55684;SDS011;41883;49.544;8.646;2022-11-15T08:44:03;4.00;;;2.22;;
55684;SDS011;41883;49.544;8.646;2022-11-15T08:46:28;5.50;;;2.55;;
55684;SDS011;41883;49.544;8.646;2022-11-15T08:48:54;5.18;;;2.40;;
55684;SDS011;41883;49.544;8.646;2022-11-15T08:51:19;5.05;;;2.50;;
55684;SDS011;41883;49.544;8.646;2022-11-15T08:53:44;5.88;;;2.85;;
55684;SDS011;41883;49.544;8.646;2022-11-15T08:56:11;4.68;;;3.20;;
55684;SDS011;41883;49.544;8.646;2022-11-15T08:58:37;5.43;;;2.90;;
55684;SDS011;41883;49.544;8.646;2022-11-15T09:01:03;6.30;;;2.90;;
55684;SDS011;41883;49.544;8.646;2022-11-15T09:03:29;4.97;;;3.13;;
55684;SDS011;41883;49.544;8.646;2022-11-15T09:05:55;4.57;;;2.60;;
55684;SDS011;41883;49.544;8.646;2022-11-15T09:08:21;4.95;;;2.25;;
55684;SDS011;41883;49.544;8.646;2022-11-15T09:10:47;3.20;;;2.17;;
55684;SDS011;41883;49.544;8.646;2022-11-15T09:13:12;2.50;;;1.83;;
55684;SDS011;41883;49.544;8.646;2022-11-15T09:15:38;3.85;;;2.00;;
55684;SDS011;41883;49.544;8.646;2022-11-15T09:18:04;3.92;;;1.98;;
55684;SDS011;41883;49.544;8.646;2022-11-15T09:20:29;4.97;;;2.33;;
55684;SDS011;41883;49.544;8.646;2022-11-15T09:22:54;3.90;;;2.40;;
55684;SDS011;41883;49.544;8.646;2022-11-15T09:25:20;4.07;;;2.35;;
55684;SDS011;41883;49.544;8.646;2022-11-15T09:27:45;3.58;;;2.35;;
55684;SDS011;41883;49.544;8.646;2022-11-15T09:30:10;4.80;;;2.55;;
55684;SDS011;41883;49.544;8.646;2022-11-15T09:32:36;2.85;;;2.08;;
55684;SDS011;41883;49.544;8.646;2022-11-15T09:35:01;2.53;;;1.77;;
55684;SDS011;41883;49.544;8.646;2022-11-15T09:37:27;3.17;;;2.10;;
55684;SDS011;41883;49.544;8.646;2022-11-15T09:39:53;3.72;;;1.92;;
55684;SDS011;41883;49.544;8.646;2022-11-15T09:50:57;4.60;;;2.10;;
55684;SDS011;41883;49.544;8.646;2022-11-15T09:56:25;3.40;;;2.10;;
55684;SDS011;41883;49.544;8.646;2022-11-15T10:01:38;3.45;;;2.15;;
55684;SDS011;41883;49.544;8.646;2022-11-15T10:04:13;3.55;;;2.10;;
55684;SDS011;41883;49.544;8.646;2022-11-15T10:06:40;3.92;;;2.50;;
55684;SDS011;41883;49.544;8.646;2022-11-15T10:09:16;3.67;;;2.10;;
55684;SDS011;41883;49.544;8.646;2022-11-15T10:11:51;3.67;;;2.20;;
55684;SDS011;41883;49.544;8.646;2022-11-15T10:14:23;6.63;;;2.60;;
55684;SDS011;41883;49.544;8.646;2022-11-15T10:17:09;3.30;;;2.20;;
55684;SDS011;41883;49.544;8.646;2022-11-15T10:20:09;2.70;;;1.90;;
55684;SDS011;41883;49.544;8.646;2022-11-15T10:27:59;3.38;;;2.00;;
55684;SDS011;41883;49.544;8.646;2022-11-15T10:30:36;3.67;;;2.13;;
55684;SDS011;41883;49.544;8.646;2022-11-15T10:33:20;6.13;;;2.35;;
55684;SDS011;41883;49.544;8.646;2022-11-15T10:41:16;4.53;;;2.40;;
55684;SDS011;41883;49.544;8.646;2022-11-15T10:44:01;5.60;;;2.20;;
55684;SDS011;41883;49.544;8.646;2022-11-15T10:46:42;4.25;;;2.50;;
55684;SDS011;41883;49.544;8.646;2022-11-15T10:51:40;4.53;;;2.40;;
55684;SDS011;41883;49.544;8.646;2022-11-15T10:54:10;3.92;;;2.25;;
55684;SDS011;41883;49.544;8.646;2022-11-15T10:56:38;3.65;;;2.10;;
55684;SDS011;41883;49.544;8.646;2022-11-15T10:59:05;3.85;;;1.75;;
55684;SDS011;41883;49.544;8.646;2022-11-15T11:01:47;3.42;;;2.00;;
55684;SDS011;41883;49.544;8.646;2022-11-15T11:04:13;3.17;;;1.95;;
55684;SDS011;41883;49.544;8.646;2022-11-15T11:09:27;5.05;;;2.30;;
55684;SDS011;41883;49.544;8.646;2022-11-15T11:11:53;3.75;;;2.28;;
55684;SDS011;41883;49.544;8.646;2022-11-15T11:14:20;3.17;;;2.15;;
55684;SDS011;41883;49.544;8.646;2022-11-15T11:16:52;5.13;;;2.30;;
55684;SDS011;41883;49.544;8.646;2022-11-15T11:19:37;6.70;;;2.70;;
55684;SDS011;41883;49.544;8.646;2022-11-15T11:25:04;5.57;;;2.28;;
55684;SDS011;41883;49.544;8.646;2022-11-15T11:27:55;4.80;;;2.28;;
55684;SDS011;41883;49.544;8.646;2022-11-15T11:38:32;4.63;;;2.10;;
55684;SDS011;41883;49.544;8.646;2022-11-15T11:43:41;5.97;;;2.40;;
55684;SDS011;41883;49.544;8.646;2022-11-15T11:49:01;3.53;;;2.00;;
55684;SDS011;41883;49.544;8.646;2022-11-15T11:51:34;3.85;;;1.98;;
55684;SDS011;41883;49.544;8.646;2022-11-15T11:54:10;3.03;;;1.95;;
55684;SDS011;41883;49.544;8.646;2022-11-15T11:56:39;4.78;;;2.10;;
55684;SDS011;41883;49.544;8.646;2022-11-15T12:02:12;2.95;;;1.60;;
55684;SDS011;41883;49.544;8.646;2022-11-15T12:04:44;3.55;;;1.70;;
55684;SDS011;41883;49.544;8.646;2022-11-15T12:07:25;2.65;;;1.63;;
55684;SDS011;41883;49.544;8.646;2022-11-15T12:17:51;2.85;;;1.67;;
55684;SDS011;41883;49.544;8.646;2022-11-15T12:20:21;2.55;;;1.50;;
55684;SDS011;41883;49.544;8.646;2022-11-15T12:30:19;2.47;;;1.50;;
55684;SDS011;41883;49.544;8.646;2022-11-15T12:33:04;1.95;;;1.33;;
55684;SDS011;41883;49.544;8.646;2022-11-15T12:38:09;4.30;;;1.80;;
55684;SDS011;41883;49.544;8.646;2022-11-15T12:40:39;2.45;;;1.80;;
55684;SDS011;41883;49.544;8.646;2022-11-15T12:43:40;2.97;;;1.70;;
55684;SDS011;41883;49.544;8.646;2022-11-15T12:46:11;2.25;;;1.67;;
55684;SDS011;41883;49.544;8.646;2022-11-15T13:02:32;2.30;;;1.60;;
55684;SDS011;41883;49.544;8.646;2022-11-15T13:17:43;1.90;;;1.40;;
55684;SDS011;41883;49.544;8.646;2022-11-15T13:22:43;2.97;;;1.80;;
55684;SDS011;41883;49.544;8.646;2022-11-15T13:25:25;3.55;;;2.00;;
55684;SDS011;41883;49.544;8.646;2022-11-15T13:31:03;2.20;;;1.60;;
55684;SDS011;41883;49.544;8.646;2022-11-15T13:33:37;2.40;;;1.65;;
55684;SDS011;41883;49.544;8.646;2022-11-15T13:36:09;3.20;;;1.67;;
55684;SDS011;41883;49.544;8.646;2022-11-15T13:38:40;2.85;;;1.63;;
55684;SDS011;41883;49.544;8.646;2022-11-15T13:43:41;2.75;;;1.80;;
55684;SDS011;41883;49.544;8.646;2022-11-15T13:48:43;2.38;;;1.40;;
55684;SDS011;41883;49.544;8.646;2022-11-15T13:51:33;2.30;;;1.50;;
55684;SDS011;41883;49.544;8.646;2022-11-15T13:56:38;2.50;;;1.50;;
55684;SDS011;41883;49.544;8.646;2022-11-15T14:02:21;3.30;;;1.90;;
55684;SDS011;41883;49.544;8.646;2022-11-15T14:04:55;2.97;;;2.10;;
55684;SDS011;41883;49.544;8.646;2022-11-15T14:07:24;4.05;;;1.80;;
55684;SDS011;41883;49.544;8.646;2022-11-15T14:09:51;3.85;;;2.40;;
55684;SDS011;41883;49.544;8.646;2022-11-15T14:14:54;5.05;;;2.28;;
55684;SDS011;41883;49.544;8.646;2022-11-15T14:19:53;3.55;;;2.17;;
55684;SDS011;41883;49.544;8.646;2022-11-15T14:22:22;2.60;;;1.65;;
55684;SDS011;41883;49.544;8.646;2022-11-15T14:27:39;3.00;;;1.90;;
55684;SDS011;41883;49.544;8.646;2022-11-15T14:30:05;3.50;;;1.95;;
55684;SDS011;41883;49.544;8.646;2022-11-15T14:35:17;4.10;;;1.87;;
55684;SDS011;41883;49.544;8.646;2022-11-15T14:37:45;3.97;;;2.20;;
55684;SDS011;41883;49.544;8.646;2022-11-15T14:40:18;3.17;;;1.95;;
55684;SDS011;41883;49.544;8.646;2022-11-15T14:42:44;3.65;;;1.90;;
55684;SDS011;41883;49.544;8.646;2022-11-15T14:45:12;2.58;;;1.65;;
55684;SDS011;41883;49.544;8.646;2022-11-15T14:47:44;2.88;;;1.60;;
55684;SDS011;41883;49.544;8.646;2022-11-15T14:50:13;3.45;;;1.60;;
55684;SDS011;41883;49.544;8.646;2022-11-15T14:52:40;2.73;;;1.77;;
55684;SDS011;41883;49.544;8.646;2022-11-15T14:55:26;2.42;;;1.70;;
55684;SDS011;41883;49.544;8.646;2022-11-15T14:57:53;2.42;;;1.50;;
55684;SDS011;41883;49.544;8.646;2022-11-15T15:00:22;3.72;;;2.10;;
55684;SDS011;41883;49.544;8.646;2022-11-15T15:02:48;3.15;;;2.17;;
55684;SDS011;41883;49.544;8.646;2022-11-15T15:05:19;3.75;;;2.22;;
55684;SDS011;41883;49.544;8.646;2022-11-15T15:07:45;3.67;;;2.22;;
55684;SDS011;41883;49.544;8.646;2022-11-15T15:10:12;3.53;;;2.20;;
55684;SDS011;41883;49.544;8.646;2022-11-15T15:12:38;3.75;;;2.55;;
55684;SDS011;41883;49.544;8.646;2022-11-15T15:15:04;2.80;;;2.00;;
55684;SDS011;41883;49.544;8.646;2022-11-15T15:17:30;4.15;;;2.50;;
55684;SDS011;41883;49.544;8.646;2022-11-15T15:19:55;3.83;;;2.05;;
55684;SDS011;41883;49.544;8.646;2022-11-15T15:22:20;4.13;;;2.13;;
55684;SDS011;41883;49.544;8.646;2022-11-15T15:27:15;2.92;;;1.65;;
55684;SDS011;41883;49.544;8.646;2022-11-15T15:29:40;2.83;;;1.70;;
55684;SDS011;41883;49.544;8.646;2022-11-15T15:32:06;3.38;;;1.80;;
55684;SDS011;41883;49.544;8.646;2022-11-15T15:34:32;3.10;;;1.60;;
55684;SDS011;41883;49.544;8.646;2022-11-15T15:39:52;2.20;;;1.40;;
55684;SDS011;41883;49.544;8.646;2022-11-15T15:42:19;2.47;;;1.50;;
55684;SDS011;41883;49.544;8.646;2022-11-15T15:44:45;2.30;;;1.58;;
55684;SDS011;41883;49.544;8.646;2022-11-15T15:49:37;2.50;;;1.42;;
55684;SDS011;41883;49.544;8.646;2022-11-15T15:52:02;6.65;;;3.90;;
55684;SDS011;41883;49.544;8.646;2022-11-15T15:54:27;4.55;;;2.90;;
55684;SDS011;41883;49.544;8.646;2022-11-15T15:56:53;3.10;;;1.90;;
55684;SDS011;41883;49.544;8.646;2022-11-15T15:59:18;3.00;;;1.60;;
55684;SDS011;41883;49.544;8.646;2022-11-15T16:01:43;4.70;;;1.65;;
55684;SDS011;41883;49.544;8.646;2022-11-15T16:04:08;2.58;;;1.60;;
55684;SDS011;41883;49.544;8.646;2022-11-15T16:06:38;2.78;;;1.40;;
55684;SDS011;41883;49.544;8.646;2022-11-15T16:09:08;2.35;;;1.60;;
55684;SDS011;41883;49.544;8.646;2022-11-15T16:11:37;3.72;;;1.98;;
55684;SDS011;41883;49.544;8.646;2022-11-15T16:14:02;4.28;;;2.33;;
55684;SDS011;41883;49.544;8.646;2022-11-15T16:16:27;3.80;;;2.03;;
55684;SDS011;41883;49.544;8.646;2022-11-15T16:18:52;3.55;;;2.00;;
55684;SDS011;41883;49.544;8.646;2022-11-15T16:21:18;2.95;;;1.90;;
55684;SDS011;41883;49.544;8.646;2022-11-15T16:23:43;3.75;;;1.98;;
55684;SDS011;41883;49.544;8.646;2022-11-15T16:26:14;4.37;;;2.20;;
55684;SDS011;41883;49.544;8.646;2022-11-15T16:31:11;3.87;;;2.00;;
55684;SDS011;41883;49.544;8.646;2022-11-15T16:33:37;5.13;;;2.03;;
55684;SDS011;41883;49.544;8.646;2022-11-15T16:36:04;4.22;;;2.05;;
55684;SDS011;41883;49.544;8.646;2022-11-15T16:38:31;3.88;;;1.73;;
55684;SDS011;41883;49.544;8.646;2022-11-15T16:40:57;3.63;;;1.98;;
55684;SDS011;41883;49.544;8.646;2022-11-15T16:43:22;2.80;;;1.77;;
55684;SDS011;41883;49.544;8.646;2022-11-15T16:45:48;5.25;;;2.55;;
55684;SDS011;41883;49.544;8.646;2022-11-15T16:48:22;4.43;;;2.22;;
55684;SDS011;41883;49.544;8.646;2022-11-15T16:50:49;2.75;;;1.98;;
55684;SDS011;41883;49.544;8.646;2022-11-15T16:53:15;3.20;;;1.85;;
55684;SDS011;41883;49.544;8.646;2022-11-15T16:55:40;3.13;;;1.80;;
55684;SDS011;41883;49.544;8.646;2022-11-15T16:58:07;4.30;;;2.10;;
55684;SDS011;41883;49.544;8.646;2022-11-15T17:00:33;3.58;;;1.85;;
55684;SDS011;41883;49.544;8.646;2022-11-15T17:02:58;3.00;;;1.73;;
55684;SDS011;41883;49.544;8.646;2022-11-15T17:05:24;2.03;;;1.40;;
55684;SDS011;41883;49.544;8.646;2022-11-15T17:07:51;3.88;;;2.05;;
55684;SDS011;41883;49.544;8.646;2022-11-15T17:10:18;4.22;;;1.98;;
55684;SDS011;41883;49.544;8.646;2022-11-15T17:12:45;3.03;;;1.60;;
55684;SDS011;41883;49.544;8.646;2022-11-15T17:15:11;2.60;;;1.70;;
55684;SDS011;41883;49.544;8.646;2022-11-15T17:17:37;2.22;;;1.42;;
55684;SDS011;41883;49.544;8.646;2022-11-15T17:20:03;2.10;;;1.35;;
55684;SDS011;41883;49.544;8.646;2022-11-15T17:22:33;2.97;;;1.38;;
55684;SDS011;41883;49.544;8.646;2022-11-15T17:24:59;3.88;;;1.73;;
55684;SDS011;41883;49.544;8.646;2022-11-15T17:27:25;2.73;;;1.60;;
55684;SDS011;41883;49.544;8.646;2022-11-15T17:29:50;2.10;;;1.43;;
55684;SDS011;41883;49.544;8.646;2022-11-15T17:32:15;5.03;;;1.90;;
55684;SDS011;41883;49.544;8.646;2022-11-15T17:34:40;2.92;;;1.42;;
55684;SDS011;41883;49.544;8.646;2022-11-15T17:37:06;2.40;;;1.50;;